sensor_id;sensor_type;location;lat;lon;timestamp;pressure;altitude;pressure_sealevel;temperature;humidity
5988;BME280;3021;51.000;6.980;2022-12-07T00:01:29;66955.28;;;5.91;100.00
5988;BME280;3021;51.000;6.980;2022-12-07T00:03:57;66934.56;;;5.72;100.00
5988;BME280;3021;51.000;6.980;2022-12-07T00:06:30;66925.53;;;5.66;100.00
5988;BME280;3021;51.000;6.980;2022-12-07T00:08:57;66920.75;;;5.60;100.00
5988;BME280;3021;51.000;6.980;2022-12-07T00:11:23;66923.38;;;5.67;100.00
5988;BME280;3021;51.000;6.980;2022-12-07T00:14:00;66931.25;;;5.71;100.00
5988;BME280;3021;51.000;6.980;2022-12-07T00:16:28;66930.69;;;5.71;100.00
5988;BME280;3021;51.000;6.980;2022-12-07T00:18:54;66926.09;;;5.67;100.00
5988;BME280;3021;51.000;6.980;2022-12-07T00:21:23;66921.47;;;5.63;100.00
5988;BME280;3021;51.000;6.980;2022-12-07T00:23:50;66937.03;;;5.77;100.00
5988;BME280;3021;51.000;6.980;2022-12-07T00:26:18;66938.91;;;5.81;100.00
5988;BME280;3021;51.000;6.980;2022-12-07T00:29:05;66942.94;;;5.84;100.00
5988;BME280;3021;51.000;6.980;2022-12-07T00:31:33;66939.34;;;5.79;100.00
5988;BME280;3021;51.000;6.980;2022-12-07T00:34:00;66935.88;;;5.76;100.00
5988;BME280;3021;51.000;6.980;2022-12-07T00:36:26;66936.88;;;5.74;100.00
5988;BME280;3021;51.000;6.980;2022-12-07T00:38:51;66939.91;;;5.79;100.00
5988;BME280;3021;51.000;6.980;2022-12-07T00:41:22;66944.78;;;5.79;100.00
5988;BME280;3021;51.000;6.980;2022-12-07T00:43:49;66944.50;;;5.83;100.00
5988;BME280;3021;51.000;6.980;2022-12-07T00:46:15;66952.97;;;5.88;100.00
5988;BME280;3021;51.000;6.980;2022-12-07T00:48:41;66958.31;;;5.96;100.00
5988;BME280;3021;51.000;6.980;2022-12-07T00:51:08;66958.91;;;5.96;100.00
5988;BME280;3021;51.000;6.980;2022-12-07T00:53:35;66958.91;;;5.96;100.00
5988;BME280;3021;51.000;6.980;2022-12-07T00:56:08;66960.06;;;5.97;100.00
5988;BME280;3021;51.000;6.980;2022-12-07T00:58:34;66955.03;;;5.95;100.00
5988;BME280;3021;51.000;6.980;2022-12-07T01:01:03;66964.66;;;6.01;100.00
5988;BME280;3021;51.000;6.980;2022-12-07T01:03:29;66965.09;;;5.99;100.00
5988;BME280;3021;51.000;6.980;2022-12-07T01:05:55;66963.53;;;6.00;100.00
5988;BME280;3021;51.000;6.980;2022-12-07T01:08:22;66958.91;;;5.96;100.00
5988;BME280;3021;51.000;6.980;2022-12-07T01:10:47;66963.38;;;5.98;100.00
5988;BME280;3021;51.000;6.980;2022-12-07T01:13:13;66965.81;;;6.02;100.00
5988;BME280;3021;51.000;6.980;2022-12-07T01:15:40;66958.91;;;5.96;100.00
5988;BME280;3021;51.000;6.980;2022-12-07T01:18:05;66968.53;;;6.02;100.00
5988;BME280;3021;51.000;6.980;2022-12-07T01:20:31;66976.03;;;6.09;100.00
5988;BME280;3021;51.000;6.980;2022-12-07T01:22:56;66955.44;;;5.93;100.00
5988;BME280;3021;51.000;6.980;2022-12-07T01:25:21;66953.72;;;5.92;100.00
5988;BME280;3021;51.000;6.980;2022-12-07T01:27:47;66951.41;;;5.89;100.00
5988;BME280;3021;51.000;6.980;2022-12-07T01:30:12;66952.41;;;5.88;100.00
5988;BME280;3021;51.000;6.980;2022-12-07T01:32:38;66953.13;;;5.91;100.00
5988;BME280;3021;51.000;6.980;2022-12-07T01:35:03;66948.97;;;5.85;100.00
5988;BME280;3021;51.000;6.980;2022-12-07T01:37:34;66938.75;;;5.78;100.00
5988;BME280;3021;51.000;6.980;2022-12-07T01:39:59;66940.06;;;5.82;100.00
5988;BME280;3021;51.000;6.980;2022-12-07T01:42:25;66939.19;;;5.76;100.00
5988;BME280;3021;51.000;6.980;2022-12-07T01:47:52;66937.03;;;5.77;100.00
5988;BME280;3021;51.000;6.980;2022-12-07T01:50:19;66939.91;;;5.79;100.00
5988;BME280;3021;51.000;6.980;2022-12-07T01:52:48;66935.72;;;5.73;100.00
5988;BME280;3021;51.000;6.980;2022-12-07T01:55:16;66931.25;;;5.71;100.00
5988;BME280;3021;51.000;6.980;2022-12-07T01:57:44;66932.41;;;5.72;100.00
5988;BME280;3021;51.000;6.980;2022-12-07T02:00:11;66927.25;;;5.68;100.00
5988;BME280;3021;51.000;6.980;2022-12-07T02:02:45;66928.97;;;5.69;100.00
5988;BME280;3021;51.000;6.980;2022-12-07T02:05:12;66922.63;;;5.64;100.00
5988;BME280;3021;51.000;6.980;2022-12-07T02:07:38;66921.91;;;5.61;100.00
5988;BME280;3021;51.000;6.980;2022-12-07T02:12:42;66915.59;;;5.55;100.00
5988;BME280;3021;51.000;6.980;2022-12-07T02:15:10;66922.06;;;5.63;100.00
5988;BME280;3021;51.000;6.980;2022-12-07T02:20:20;66933.97;;;5.71;100.00
5988;BME280;3021;51.000;6.980;2022-12-07T02:34:24;66926.69;;;5.67;100.00
5988;BME280;3021;51.000;6.980;2022-12-07T02:36:55;66920.75;;;5.60;100.00
5988;BME280;3021;51.000;6.980;2022-12-07T02:39:45;66920.75;;;5.60;100.00
5988;BME280;3021;51.000;6.980;2022-12-07T02:42:26;66920.34;;;5.62;100.00
5988;BME280;3021;51.000;6.980;2022-12-07T02:44:55;66923.06;;;5.62;100.00
5988;BME280;3021;51.000;6.980;2022-12-07T02:47:22;66917.63;;;5.62;100.00
5988;BME280;3021;51.000;6.980;2022-12-07T02:49:50;66928.81;;;5.67;100.00
5988;BME280;3021;51.000;6.980;2022-12-07T02:52:16;66927.09;;;5.65;100.00
5988;BME280;3021;51.000;6.980;2022-12-07T02:54:41;66919.34;;;5.63;100.00
5988;BME280;3021;51.000;6.980;2022-12-07T03:00:07;66922.47;;;5.61;100.00
5988;BME280;3021;51.000;6.980;2022-12-07T03:02:53;66925.53;;;5.66;100.00
5988;BME280;3021;51.000;6.980;2022-12-07T03:08:46;66926.69;;;5.67;100.00
5988;BME280;3021;51.000;6.980;2022-12-07T03:11:17;66929.97;;;5.68;100.00
5988;BME280;3021;51.000;6.980;2022-12-07T03:14:09;66938.59;;;5.76;100.00
5988;BME280;3021;51.000;6.980;2022-12-07T03:17:00;66936.28;;;5.74;100.00
5988;BME280;3021;51.000;6.980;2022-12-07T03:19:31;66929.69;;;5.72;100.00
5988;BME280;3021;51.000;6.980;2022-12-07T03:22:07;66925.94;;;5.64;100.00
5988;BME280;3021;51.000;6.980;2022-12-07T03:24:39;66927.66;;;5.66;100.00
5988;BME280;3021;51.000;6.980;2022-12-07T03:27:10;66927.25;;;5.68;100.00
5988;BME280;3021;51.000;6.980;2022-12-07T03:29:42;66928.81;;;5.67;100.00
5988;BME280;3021;51.000;6.980;2022-12-07T03:32:36;66933.41;;;5.71;100.00
5988;BME280;3021;51.000;6.980;2022-12-07T03:35:07;66927.25;;;5.68;100.00
5988;BME280;3021;51.000;6.980;2022-12-07T03:37:48;66927.50;;;5.63;100.00
5988;BME280;3021;51.000;6.980;2022-12-07T03:40:17;66924.78;;;5.63;100.00
5988;BME280;3021;51.000;6.980;2022-12-07T03:42:47;66930.53;;;5.68;100.00
5988;BME280;3021;51.000;6.980;2022-12-07T03:45:14;66928.25;;;5.66;100.00
5988;BME280;3021;51.000;6.980;2022-12-07T03:47:53;66929.69;;;5.72;100.00
5988;BME280;3021;51.000;6.980;2022-12-07T03:50:31;66933.00;;;5.73;100.00
5988;BME280;3021;51.000;6.980;2022-12-07T03:53:07;66934.72;;;5.75;100.00
5988;BME280;3021;51.000;6.980;2022-12-07T03:55:37;66933.97;;;5.71;100.00
5988;BME280;3021;51.000;6.980;2022-12-07T03:58:08;66936.28;;;5.74;100.00
5988;BME280;3021;51.000;6.980;2022-12-07T04:00:38;66931.25;;;5.71;100.00
5988;BME280;3021;51.000;6.980;2022-12-07T04:03:03;66932.25;;;5.70;100.00
5988;BME280;3021;51.000;6.980;2022-12-07T04:05:29;66937.59;;;5.77;100.00
5988;BME280;3021;51.000;6.980;2022-12-07T04:07:54;66924.38;;;5.65;100.00
5988;BME280;3021;51.000;6.980;2022-12-07T04:10:19;66922.63;;;5.64;100.00
5988;BME280;3021;51.000;6.980;2022-12-07T04:12:45;66928.25;;;5.66;100.00
5988;BME280;3021;51.000;6.980;2022-12-07T04:15:10;66926.09;;;5.67;100.00
5988;BME280;3021;51.000;6.980;2022-12-07T04:17:35;66922.63;;;5.64;100.00
5988;BME280;3021;51.000;6.980;2022-12-07T04:20:01;66910.56;;;5.53;100.00
5988;BME280;3021;51.000;6.980;2022-12-07T04:22:27;66917.88;;;5.57;100.00
5988;BME280;3021;51.000;6.980;2022-12-07T04:24:52;66917.47;;;5.59;100.00
5988;BME280;3021;51.000;6.980;2022-12-07T04:27:17;66916.31;;;5.58;100.00
5988;BME280;3021;51.000;6.980;2022-12-07T04:29:42;66918.63;;;5.60;100.00
5988;BME280;3021;51.000;6.980;2022-12-07T04:32:08;66917.63;;;5.62;100.00
5988;BME280;3021;51.000;6.980;2022-12-07T04:34:33;66919.75;;;5.61;100.00
5988;BME280;3021;51.000;6.980;2022-12-07T04:36:58;66920.34;;;5.62;100.00
5988;BME280;3021;51.000;6.980;2022-12-07T04:39:29;66930.41;;;5.66;100.00
5988;BME280;3021;51.000;6.980;2022-12-07T04:41:55;66926.69;;;5.67;100.00
5988;BME280;3021;51.000;6.980;2022-12-07T04:44:22;66921.66;;;5.65;100.00
5988;BME280;3021;51.000;6.980;2022-12-07T04:46:48;66925.53;;;5.66;100.00
5988;BME280;3021;51.000;6.980;2022-12-07T04:49:15;66919.59;;;5.59;100.00
5988;BME280;3021;51.000;6.980;2022-12-07T04:51:41;66913.84;;;5.53;100.00
5988;BME280;3021;51.000;6.980;2022-12-07T04:54:06;66918.47;;;5.58;100.00
5988;BME280;3021;51.000;6.980;2022-12-07T04:56:32;66923.78;;;5.65;100.00
5988;BME280;3021;51.000;6.980;2022-12-07T04:58:57;66926.69;;;5.67;100.00
5988;BME280;3021;51.000;6.980;2022-12-07T05:01:23;66925.53;;;5.66;100.00
5988;BME280;3021;51.000;6.980;2022-12-07T05:03:49;66920.75;;;5.60;100.00
5988;BME280;3021;51.000;6.980;2022-12-07T05:06:14;66914.03;;;5.56;100.00
5988;BME280;3021;51.000;6.980;2022-12-07T05:08:40;66917.88;;;5.57;100.00
5988;BME280;3021;51.000;6.980;2022-12-07T05:11:07;66921.47;;;5.63;100.00
5988;BME280;3021;51.000;6.980;2022-12-07T05:13:33;66919.19;;;5.61;100.00
5988;BME280;3021;51.000;6.980;2022-12-07T05:15:59;66921.91;;;5.61;100.00
5988;BME280;3021;51.000;6.980;2022-12-07T05:18:24;66914.03;;;5.56;100.00
5988;BME280;3021;51.000;6.980;2022-12-07T05:20:50;66911.69;;;5.54;100.00
5988;BME280;3021;51.000;6.980;2022-12-07T05:23:16;66915.16;;;5.57;100.00
5988;BME280;3021;51.000;6.980;2022-12-07T05:25:41;66911.69;;;5.54;100.00
5988;BME280;3021;51.000;6.980;2022-12-07T05:28:06;66910.97;;;5.51;100.00
5988;BME280;3021;51.000;6.980;2022-12-07T05:30:32;66914.75;;;5.59;100.00
5988;BME280;3021;51.000;6.980;2022-12-07T05:32:57;66917.47;;;5.59;100.00
5988;BME280;3021;51.000;6.980;2022-12-07T05:35:23;66919.03;;;5.58;100.00
5988;BME280;3021;51.000;6.980;2022-12-07T05:37:48;66918.03;;;5.60;100.00
5988;BME280;3021;51.000;6.980;2022-12-07T05:40:15;66918.47;;;5.58;100.00
5988;BME280;3021;51.000;6.980;2022-12-07T05:42:41;66911.13;;;5.53;100.00
5988;BME280;3021;51.000;6.980;2022-12-07T05:45:07;66894.88;;;5.36;100.00
5988;BME280;3021;51.000;6.980;2022-12-07T05:47:33;66887.25;;;5.27;100.00
5988;BME280;3021;51.000;6.980;2022-12-07T05:49:58;66892.00;;;5.34;100.00
5988;BME280;3021;51.000;6.980;2022-12-07T05:52:23;66886.25;;;5.29;100.00
5988;BME280;3021;51.000;6.980;2022-12-07T05:54:49;66879.34;;;5.23;100.00
5988;BME280;3021;51.000;6.980;2022-12-07T05:57:14;66871.44;;;5.18;100.00
5988;BME280;3021;51.000;6.980;2022-12-07T05:59:39;66867.41;;;5.14;100.00
5988;BME280;3021;51.000;6.980;2022-12-07T06:02:07;66861.25;;;5.11;100.00
5988;BME280;3021;51.000;6.980;2022-12-07T06:04:36;66851.91;;;5.00;100.00
5988;BME280;3021;51.000;6.980;2022-12-07T06:07:02;66840.41;;;4.90;100.00
5988;BME280;3021;51.000;6.980;2022-12-07T06:09:28;66837.94;;;4.85;100.00
5988;BME280;3021;51.000;6.980;2022-12-07T06:11:54;66826.16;;;4.80;100.00
5988;BME280;3021;51.000;6.980;2022-12-07T06:14:39;66824.28;;;4.76;100.00
5988;BME280;3021;51.000;6.980;2022-12-07T06:17:05;66822.56;;;4.74;100.00
5988;BME280;3021;51.000;6.980;2022-12-07T06:19:30;66826.44;;;4.75;100.00
5988;BME280;3021;51.000;6.980;2022-12-07T06:21:57;66819.53;;;4.69;100.00
5988;BME280;3021;51.000;6.980;2022-12-07T06:24:22;66813.94;;;4.66;100.00
5988;BME280;3021;51.000;6.980;2022-12-07T06:26:49;66810.50;;;4.63;100.00
5988;BME280;3021;51.000;6.980;2022-12-07T06:29:14;66818.94;;;4.68;100.00
5988;BME280;3021;51.000;6.980;2022-12-07T06:31:40;66816.09;;;4.66;100.00
5988;BME280;3021;51.000;6.980;2022-12-07T06:34:09;66828.16;;;4.77;100.00
5988;BME280;3021;51.000;6.980;2022-12-07T06:36:35;66832.75;;;4.81;100.00
5988;BME280;3021;51.000;6.980;2022-12-07T06:39:01;66835.63;;;4.83;100.00
5988;BME280;3021;51.000;6.980;2022-12-07T06:41:26;66834.47;;;4.82;100.00
5988;BME280;3021;51.000;6.980;2022-12-07T06:43:52;66833.31;;;4.81;100.00
5988;BME280;3021;51.000;6.980;2022-12-07T06:46:17;66840.41;;;4.90;100.00
5988;BME280;3021;51.000;6.980;2022-12-07T06:48:43;66851.72;;;4.98;100.00
5988;BME280;3021;51.000;6.980;2022-12-07T06:51:08;66860.09;;;5.10;100.00
5988;BME280;3021;51.000;6.980;2022-12-07T06:53:34;66870.13;;;5.14;100.00
5988;BME280;3021;51.000;6.980;2022-12-07T06:56:00;66871.28;;;5.15;100.00
5988;BME280;3021;51.000;6.980;2022-12-07T06:58:25;66863.97;;;5.11;100.00
5988;BME280;3021;51.000;6.980;2022-12-07T07:00:50;66838.81;;;4.91;100.00
5988;BME280;3021;51.000;6.980;2022-12-07T07:03:16;66826.59;;;4.78;100.00
5988;BME280;3021;51.000;6.980;2022-12-07T07:05:42;66820.84;;;4.73;100.00
5988;BME280;3021;51.000;6.980;2022-12-07T07:08:08;66831.03;;;4.79;100.00
5988;BME280;3021;51.000;6.980;2022-12-07T07:10:33;66827.59;;;4.76;100.00
5988;BME280;3021;51.000;6.980;2022-12-07T07:12:59;66838.34;;;4.83;100.00
5988;BME280;3021;51.000;6.980;2022-12-07T07:15:24;66841.53;;;4.91;100.00
5988;BME280;3021;51.000;6.980;2022-12-07T07:17:49;66851.56;;;4.95;100.00
5988;BME280;3021;51.000;6.980;2022-12-07T07:20:15;66845.16;;;4.97;100.00
5988;BME280;3021;51.000;6.980;2022-12-07T07:22:40;66846.56;;;4.93;100.00
5988;BME280;3021;51.000;6.980;2022-12-07T07:25:06;66853.03;;;5.01;100.00
5988;BME280;3021;51.000;6.980;2022-12-07T07:27:32;66859.78;;;5.05;100.00
5988;BME280;3021;51.000;6.980;2022-12-07T07:29:57;66857.63;;;5.06;100.00
5988;BME280;3021;51.000;6.980;2022-12-07T07:32:22;66858.06;;;5.04;100.00
5988;BME280;3021;51.000;6.980;2022-12-07T07:34:48;66856.06;;;5.07;100.00
5988;BME280;3021;51.000;6.980;2022-12-07T07:37:13;66871.88;;;5.16;100.00
5988;BME280;3021;51.000;6.980;2022-12-07T07:39:39;66871.00;;;5.20;100.00
5988;BME280;3021;51.000;6.980;2022-12-07T07:42:04;66884.53;;;5.27;100.00
5988;BME280;3021;51.000;6.980;2022-12-07T07:44:30;66886.38;;;5.31;100.00
5988;BME280;3021;51.000;6.980;2022-12-07T07:46:55;66886.56;;;5.34;100.00
5988;BME280;3021;51.000;6.980;2022-12-07T07:49:21;66899.63;;;5.43;100.00
5988;BME280;3021;51.000;6.980;2022-12-07T07:51:46;66911.53;;;5.51;100.00
5988;BME280;3021;51.000;6.980;2022-12-07T07:54:11;66909.41;;;5.52;100.00
5988;BME280;3021;51.000;6.980;2022-12-07T07:56:36;66909.56;;;5.54;100.00
5988;BME280;3021;51.000;6.980;2022-12-07T07:59:02;66915.75;;;5.58;100.00
5988;BME280;3021;51.000;6.980;2022-12-07T08:01:27;66914.03;;;5.56;100.00
5988;BME280;3021;51.000;6.980;2022-12-07T08:03:53;66915.75;;;5.58;100.00
5988;BME280;3021;51.000;6.980;2022-12-07T08:06:18;66911.53;;;5.51;100.00
5988;BME280;3021;51.000;6.980;2022-12-07T08:08:44;66907.09;;;5.50;100.00
5988;BME280;3021;51.000;6.980;2022-12-07T08:11:09;66906.97;;;5.47;100.00
5988;BME280;3021;51.000;6.980;2022-12-07T08:13:35;66904.97;;;5.50;100.00
5988;BME280;3021;51.000;6.980;2022-12-07T08:16:05;66915.16;;;5.57;100.00
5988;BME280;3021;51.000;6.980;2022-12-07T08:18:35;66922.47;;;5.61;100.00
5988;BME280;3021;51.000;6.980;2022-12-07T08:21:00;66918.63;;;5.60;100.00
5988;BME280;3021;51.000;6.980;2022-12-07T08:23:26;66919.03;;;5.58;100.00
5988;BME280;3021;51.000;6.980;2022-12-07T08:25:51;66917.03;;;5.61;100.00
5988;BME280;3021;51.000;6.980;2022-12-07T08:28:22;66923.47;;;5.60;100.00
5988;BME280;3021;51.000;6.980;2022-12-07T08:30:47;66909.69;;;5.47;100.00
5988;BME280;3021;51.000;6.980;2022-12-07T08:33:13;66906.53;;;5.49;100.00
5988;BME280;3021;51.000;6.980;2022-12-07T08:35:38;66910.72;;;5.56;100.00
5988;BME280;3021;51.000;6.980;2022-12-07T08:38:03;66921.06;;;5.65;100.00
5988;BME280;3021;51.000;6.980;2022-12-07T08:40:29;66936.47;;;5.76;100.00
5988;BME280;3021;51.000;6.980;2022-12-07T08:42:55;66949.13;;;5.87;100.00
5988;BME280;3021;51.000;6.980;2022-12-07T08:45:21;66958.75;;;5.94;100.00
5988;BME280;3021;51.000;6.980;2022-12-07T08:47:55;66978.63;;;6.16;100.00
5988;BME280;3021;51.000;6.980;2022-12-07T08:50:23;67004.53;;;6.39;100.00
5988;BME280;3021;51.000;6.980;2022-12-07T08:52:51;67026.84;;;6.57;100.00
5988;BME280;3021;51.000;6.980;2022-12-07T08:55:18;67018.78;;;6.50;100.00
5988;BME280;3021;51.000;6.980;2022-12-07T08:57:43;66999.63;;;6.30;100.00
5988;BME280;3021;51.000;6.980;2022-12-07T09:00:09;66985.81;;;6.18;100.00
5988;BME280;3021;51.000;6.980;2022-12-07T09:02:35;66981.38;;;6.16;100.00
5988;BME280;3021;51.000;6.980;2022-12-07T09:05:01;66991.72;;;6.26;100.00
5988;BME280;3021;51.000;6.980;2022-12-07T09:07:27;66996.47;;;6.32;100.00
5988;BME280;3021;51.000;6.980;2022-12-07T09:09:52;67011.44;;;6.46;100.00
5988;BME280;3021;51.000;6.980;2022-12-07T09:12:17;67025.13;;;6.55;100.00
5988;BME280;3021;51.000;6.980;2022-12-07T09:14:43;67028.00;;;6.58;100.00
5988;BME280;3021;51.000;6.980;2022-12-07T09:17:12;67025.53;;;6.53;100.00
5988;BME280;3021;51.000;6.980;2022-12-07T09:19:38;67032.19;;;6.64;100.00
5988;BME280;3021;51.000;6.980;2022-12-07T09:22:04;67033.34;;;6.65;100.00
5988;BME280;3021;51.000;6.980;2022-12-07T09:24:30;67035.50;;;6.65;100.00
5988;BME280;3021;51.000;6.980;2022-12-07T09:26:56;67024.53;;;6.55;100.00
5988;BME280;3021;51.000;6.980;2022-12-07T09:29:22;67024.38;;;6.52;100.00
5988;BME280;3021;51.000;6.980;2022-12-07T09:31:47;67026.09;;;6.54;100.00
5988;BME280;3021;51.000;6.980;2022-12-07T09:34:12;67015.47;;;6.49;100.00
5988;BME280;3021;51.000;6.980;2022-12-07T09:36:38;67013.03;;;6.45;100.00
5988;BME280;3021;51.000;6.980;2022-12-07T09:39:03;67022.81;;;6.53;100.00
5988;BME280;3021;51.000;6.980;2022-12-07T09:41:30;67034.50;;;6.66;100.00
5988;BME280;3021;51.000;6.980;2022-12-07T09:44:04;67049.88;;;6.78;100.00
5988;BME280;3021;51.000;6.980;2022-12-07T09:46:34;67110.38;;;7.32;100.00
5988;BME280;3021;51.000;6.980;2022-12-07T09:49:01;67182.00;;;7.98;100.00
5988;BME280;3021;51.000;6.980;2022-12-07T09:51:27;67208.94;;;8.20;100.00
5988;BME280;3021;51.000;6.980;2022-12-07T09:53:54;67238.94;;;8.46;100.00
5988;BME280;3021;51.000;6.980;2022-12-07T09:56:21;67255.09;;;8.61;100.00
5988;BME280;3021;51.000;6.980;2022-12-07T09:58:48;67252.94;;;8.61;100.00
5988;BME280;3021;51.000;6.980;2022-12-07T10:01:19;67245.88;;;8.53;100.00
5988;BME280;3021;51.000;6.980;2022-12-07T10:03:54;67192.38;;;8.07;100.00
5988;BME280;3021;51.000;6.980;2022-12-07T10:06:20;67182.00;;;7.98;100.00
5988;BME280;3021;51.000;6.980;2022-12-07T10:08:46;67152.59;;;7.72;100.00
5988;BME280;3021;51.000;6.980;2022-12-07T10:11:11;67134.00;;;7.53;100.00
5988;BME280;3021;51.000;6.980;2022-12-07T10:13:47;67128.25;;;7.48;100.00
5988;BME280;3021;51.000;6.980;2022-12-07T10:19:18;67096.69;;;7.22;100.00
5988;BME280;3021;51.000;6.980;2022-12-07T10:24:24;67119.00;;;7.39;100.00
5988;BME280;3021;51.000;6.980;2022-12-07T10:26:51;67122.06;;;7.44;100.00
5988;BME280;3021;51.000;6.980;2022-12-07T10:29:21;67121.47;;;7.44;100.00
5988;BME280;3021;51.000;6.980;2022-12-07T10:31:52;67123.63;;;7.43;100.00
5988;BME280;3021;51.000;6.980;2022-12-07T10:34:25;67127.66;;;7.47;100.00
5988;BME280;3021;51.000;6.980;2022-12-07T10:36:52;67128.25;;;7.48;100.00
5988;BME280;3021;51.000;6.980;2022-12-07T10:39:20;67123.63;;;7.43;100.00
5988;BME280;3021;51.000;6.980;2022-12-07T10:41:56;67119.16;;;7.42;100.00
5988;BME280;3021;51.000;6.980;2022-12-07T10:44:25;67147.25;;;7.65;100.00
5988;BME280;3021;51.000;6.980;2022-12-07T10:55:22;67166.41;;;7.84;100.00
5988;BME280;3021;51.000;6.980;2022-12-07T11:01:08;67145.81;;;7.68;100.00
5988;BME280;3021;51.000;6.980;2022-12-07T11:03:43;67143.22;;;7.61;100.00
5988;BME280;3021;51.000;6.980;2022-12-07T11:06:16;67138.19;;;7.59;100.00
5988;BME280;3021;51.000;6.980;2022-12-07T11:11:54;67125.50;;;7.48;100.00
5988;BME280;3021;51.000;6.980;2022-12-07T11:14:25;67174.91;;;7.89;100.00
5988;BME280;3021;51.000;6.980;2022-12-07T11:17:26;67216.44;;;8.26;100.00
5988;BME280;3021;51.000;6.980;2022-12-07T11:23:00;67245.88;;;8.53;100.00
5988;BME280;3021;51.000;6.980;2022-12-07T11:25:49;67233.91;;;8.44;100.00
5988;BME280;3021;51.000;6.980;2022-12-07T11:31:26;67267.78;;;8.72;100.00
5988;BME280;3021;51.000;6.980;2022-12-07T11:36:54;67266.06;;;8.71;100.00
5988;BME280;3021;51.000;6.980;2022-12-07T11:39:26;67254.66;;;8.63;100.00
5988;BME280;3021;51.000;6.980;2022-12-07T11:42:16;67203.19;;;8.15;100.00
5988;BME280;3021;51.000;6.980;2022-12-07T11:47:46;67158.78;;;7.75;100.00
5988;BME280;3021;51.000;6.980;2022-12-07T11:53:26;67139.19;;;7.57;100.00
5988;BME280;3021;51.000;6.980;2022-12-07T11:56:12;67153.72;;;7.73;100.00
5988;BME280;3021;51.000;6.980;2022-12-07T12:01:14;67203.91;;;8.18;100.00
5988;BME280;3021;51.000;6.980;2022-12-07T12:03:46;67184.16;;;7.98;100.00
5988;BME280;3021;51.000;6.980;2022-12-07T12:06:13;67150.88;;;7.70;100.00
5988;BME280;3021;51.000;6.980;2022-12-07T12:14:05;67139.59;;;7.55;100.00
5988;BME280;3021;51.000;6.980;2022-12-07T12:19:34;67089.19;;;7.15;100.00
5988;BME280;3021;51.000;6.980;2022-12-07T12:22:14;67125.91;;;7.46;100.00
5988;BME280;3021;51.000;6.980;2022-12-07T12:24:42;67135.16;;;7.54;100.00
5988;BME280;3021;51.000;6.980;2022-12-07T12:27:18;67162.25;;;7.78;100.00
5988;BME280;3021;51.000;6.980;2022-12-07T12:29:54;67162.41;;;7.81;100.00
5988;BME280;3021;51.000;6.980;2022-12-07T12:32:22;67186.59;;;8.02;100.00
5988;BME280;3021;51.000;6.980;2022-12-07T12:48:03;67135.31;;;7.56;100.00
5988;BME280;3021;51.000;6.980;2022-12-07T12:50:36;67141.06;;;7.61;100.00
5988;BME280;3021;51.000;6.980;2022-12-07T12:53:21;67143.78;;;7.61;100.00
5988;BME280;3021;51.000;6.980;2022-12-07T12:56:23;67124.34;;;7.47;100.00
5988;BME280;3021;51.000;6.980;2022-12-07T13:01:42;67095.97;;;7.19;100.00
5988;BME280;3021;51.000;6.980;2022-12-07T13:04:48;67098.59;;;7.26;100.00
5988;BME280;3021;51.000;6.980;2022-12-07T13:07:03;67113.41;;;7.37;100.00
5988;BME280;3021;51.000;6.980;2022-12-07T13:09:31;67132.41;;;7.54;100.00
5988;BME280;3021;51.000;6.980;2022-12-07T13:12:13;67144.38;;;7.62;100.00
5988;BME280;3021;51.000;6.980;2022-12-07T13:14:56;67134.41;;;7.51;100.00
5988;BME280;3021;51.000;6.980;2022-12-07T13:19:58;67155.91;;;7.72;100.00
5988;BME280;3021;51.000;6.980;2022-12-07T13:25:21;67166.28;;;7.82;100.00
5988;BME280;3021;51.000;6.980;2022-12-07T13:27:57;67149.00;;;7.66;100.00
5988;BME280;3021;51.000;6.980;2022-12-07T13:30:23;67115.72;;;7.39;100.00
5988;BME280;3021;51.000;6.980;2022-12-07T13:32:56;67127.81;;;7.50;100.00
5988;BME280;3021;51.000;6.980;2022-12-07T13:35:35;67119.59;;;7.40;100.00
5988;BME280;3021;51.000;6.980;2022-12-07T13:38:19;67128.25;;;7.48;100.00
5988;BME280;3021;51.000;6.980;2022-12-07T13:43:29;67147.81;;;7.65;100.00
5988;BME280;3021;51.000;6.980;2022-12-07T13:45:58;67154.59;;;7.69;100.00
5988;BME280;3021;51.000;6.980;2022-12-07T13:48:35;67159.50;;;7.78;100.00
5988;BME280;3021;51.000;6.980;2022-12-07T13:51:03;67167.41;;;7.83;100.00
5988;BME280;3021;51.000;6.980;2022-12-07T13:53:29;67163.81;;;7.77;100.00
5988;BME280;3021;51.000;6.980;2022-12-07T13:55:59;67158.94;;;7.77;100.00
5988;BME280;3021;51.000;6.980;2022-12-07T13:58:26;67155.31;;;7.72;100.00
5988;BME280;3021;51.000;6.980;2022-12-07T14:00:54;67145.53;;;7.63;100.00
5988;BME280;3021;51.000;6.980;2022-12-07T14:03:32;67112.81;;;7.36;100.00
5988;BME280;3021;51.000;6.980;2022-12-07T14:06:18;67110.50;;;7.34;100.00
5988;BME280;3021;51.000;6.980;2022-12-07T14:08:44;67107.50;;;7.29;100.00
5988;BME280;3021;51.000;6.980;2022-12-07T14:11:16;67107.06;;;7.31;100.00
5988;BME280;3021;51.000;6.980;2022-12-07T14:13:56;67102.03;;;7.29;100.00
5988;BME280;3021;51.000;6.980;2022-12-07T14:18:53;67103.44;;;7.25;100.00
5988;BME280;3021;51.000;6.980;2022-12-07T14:21:21;67095.38;;;7.18;100.00
5988;BME280;3021;51.000;6.980;2022-12-07T14:24:11;67097.69;;;7.20;100.00
5988;BME280;3021;51.000;6.980;2022-12-07T14:26:38;67078.69;;;7.03;100.00
5988;BME280;3021;51.000;6.980;2022-12-07T14:31:56;67076.97;;;7.02;100.00
5988;BME280;3021;51.000;6.980;2022-12-07T14:34:22;67075.06;;;6.98;100.00
5988;BME280;3021;51.000;6.980;2022-12-07T14:36:48;67056.22;;;6.83;100.00
5988;BME280;3021;51.000;6.980;2022-12-07T14:39:14;67056.22;;;6.83;100.00
5988;BME280;3021;51.000;6.980;2022-12-07T14:41:39;67054.91;;;6.80;100.00
5988;BME280;3021;51.000;6.980;2022-12-07T14:44:18;67066.00;;;6.92;100.00
5988;BME280;3021;51.000;6.980;2022-12-07T14:46:44;67074.06;;;6.99;100.00
5988;BME280;3021;51.000;6.980;2022-12-07T14:49:10;67081.41;;;7.03;100.00
5988;BME280;3021;51.000;6.980;2022-12-07T14:51:38;67084.44;;;7.08;100.00
5988;BME280;3021;51.000;6.980;2022-12-07T14:54:05;67084.28;;;7.06;100.00
5988;BME280;3021;51.000;6.980;2022-12-07T14:56:31;67081.56;;;7.06;100.00
5988;BME280;3021;51.000;6.980;2022-12-07T14:58:57;67067.31;;;6.96;100.00
5988;BME280;3021;51.000;6.980;2022-12-07T15:01:22;67061.41;;;6.88;100.00
5988;BME280;3021;51.000;6.980;2022-12-07T15:03:48;67063.56;;;6.87;100.00
5988;BME280;3021;51.000;6.980;2022-12-07T15:06:15;67057.94;;;6.85;100.00
5988;BME280;3021;51.000;6.980;2022-12-07T15:08:41;67056.22;;;6.83;100.00
5988;BME280;3021;51.000;6.980;2022-12-07T15:11:11;67056.78;;;6.84;100.00
5988;BME280;3021;51.000;6.980;2022-12-07T15:13:37;67048.72;;;6.77;100.00